sensor_id;sensor_type;location;lat;lon;timestamp;P1;durP1;ratioP1;P2;durP2;ratioP2
69594;SDS011;56800;52.142;5.364;2023-03-16T00:02:06;8.23;;;3.60;;
69594;SDS011;56800;52.142;5.364;2023-03-16T00:04:34;7.13;;;3.40;;
69594;SDS011;56800;52.142;5.364;2023-03-16T00:07:03;6.35;;;3.03;;
69594;SDS011;56800;52.142;5.364;2023-03-16T00:09:30;6.85;;;3.40;;
69594;SDS011;56800;52.142;5.364;2023-03-16T00:11:57;5.72;;;3.60;;
69594;SDS011;56800;52.142;5.364;2023-03-16T00:14:25;9.57;;;3.70;;
69594;SDS011;56800;52.142;5.364;2023-03-16T00:16:51;6.72;;;3.72;;
69594;SDS011;56800;52.142;5.364;2023-03-16T00:19:18;7.07;;;3.38;;
69594;SDS011;56800;52.142;5.364;2023-03-16T00:21:48;5.90;;;3.35;;
69594;SDS011;56800;52.142;5.364;2023-03-16T00:24:16;7.13;;;3.45;;
69594;SDS011;56800;52.142;5.364;2023-03-16T00:26:44;7.03;;;3.43;;
69594;SDS011;56800;52.142;5.364;2023-03-16T00:29:12;7.30;;;3.35;;
69594;SDS011;56800;52.142;5.364;2023-03-16T00:31:39;5.70;;;3.17;;
69594;SDS011;56800;52.142;5.364;2023-03-16T00:34:10;8.25;;;3.83;;
69594;SDS011;56800;52.142;5.364;2023-03-16T00:36:37;5.97;;;3.47;;
69594;SDS011;56800;52.142;5.364;2023-03-16T00:39:04;7.43;;;3.63;;
69594;SDS011;56800;52.142;5.364;2023-03-16T00:41:32;7.93;;;3.53;;
69594;SDS011;56800;52.142;5.364;2023-03-16T00:44:03;8.38;;;3.42;;
69594;SDS011;56800;52.142;5.364;2023-03-16T00:46:31;8.70;;;3.80;;
69594;SDS011;56800;52.142;5.364;2023-03-16T00:48:58;6.28;;;4.00;;
69594;SDS011;56800;52.142;5.364;2023-03-16T00:51:25;10.57;;;3.63;;
69594;SDS011;56800;52.142;5.364;2023-03-16T00:53:51;11.82;;;4.25;;
69594;SDS011;56800;52.142;5.364;2023-03-16T00:56:18;7.03;;;3.88;;
69594;SDS011;56800;52.142;5.364;2023-03-16T00:58:45;9.98;;;4.50;;
69594;SDS011;56800;52.142;5.364;2023-03-16T01:01:15;7.57;;;4.00;;
69594;SDS011;56800;52.142;5.364;2023-03-16T01:03:44;8.20;;;3.90;;
69594;SDS011;56800;52.142;5.364;2023-03-16T01:06:12;7.05;;;4.05;;
69594;SDS011;56800;52.142;5.364;2023-03-16T01:08:40;9.85;;;3.88;;
69594;SDS011;56800;52.142;5.364;2023-03-16T01:11:08;9.32;;;4.13;;
69594;SDS011;56800;52.142;5.364;2023-03-16T01:13:38;6.95;;;3.88;;
69594;SDS011;56800;52.142;5.364;2023-03-16T01:16:05;7.73;;;4.10;;
69594;SDS011;56800;52.142;5.364;2023-03-16T01:18:32;7.50;;;4.20;;
69594;SDS011;56800;52.142;5.364;2023-03-16T01:21:00;9.10;;;4.28;;
69594;SDS011;56800;52.142;5.364;2023-03-16T01:23:29;7.95;;;4.20;;
69594;SDS011;56800;52.142;5.364;2023-03-16T01:25:57;8.77;;;4.13;;
69594;SDS011;56800;52.142;5.364;2023-03-16T01:28:25;9.63;;;4.13;;
69594;SDS011;56800;52.142;5.364;2023-03-16T01:30:55;7.22;;;4.00;;
69594;SDS011;56800;52.142;5.364;2023-03-16T01:33:29;7.57;;;4.53;;
69594;SDS011;56800;52.142;5.364;2023-03-16T01:36:00;8.35;;;4.15;;
69594;SDS011;56800;52.142;5.364;2023-03-16T01:38:29;8.05;;;4.22;;
69594;SDS011;56800;52.142;5.364;2023-03-16T01:40:56;8.53;;;4.20;;
69594;SDS011;56800;52.142;5.364;2023-03-16T01:43:23;7.10;;;4.25;;
69594;SDS011;56800;52.142;5.364;2023-03-16T01:46:37;8.57;;;4.50;;
69594;SDS011;56800;52.142;5.364;2023-03-16T01:59:38;9.50;;;4.53;;
69594;SDS011;56800;52.142;5.364;2023-03-16T02:02:12;9.93;;;3.95;;
69594;SDS011;56800;52.142;5.364;2023-03-16T02:04:45;9.32;;;4.60;;
69594;SDS011;56800;52.142;5.364;2023-03-16T02:07:21;8.83;;;4.50;;
69594;SDS011;56800;52.142;5.364;2023-03-16T02:09:52;9.45;;;5.03;;
69594;SDS011;56800;52.142;5.364;2023-03-16T02:12:22;8.07;;;4.55;;
69594;SDS011;56800;52.142;5.364;2023-03-16T02:14:49;10.52;;;5.05;;
69594;SDS011;56800;52.142;5.364;2023-03-16T02:17:20;9.63;;;4.57;;
69594;SDS011;56800;52.142;5.364;2023-03-16T02:22:21;8.43;;;4.45;;
69594;SDS011;56800;52.142;5.364;2023-03-16T02:24:51;6.80;;;4.30;;
69594;SDS011;56800;52.142;5.364;2023-03-16T02:27:35;7.60;;;4.13;;
69594;SDS011;56800;52.142;5.364;2023-03-16T02:30:14;7.53;;;4.60;;
69594;SDS011;56800;52.142;5.364;2023-03-16T02:32:43;8.73;;;4.80;;
69594;SDS011;56800;52.142;5.364;2023-03-16T02:35:12;9.23;;;4.70;;
69594;SDS011;56800;52.142;5.364;2023-03-16T02:37:39;8.57;;;4.70;;
69594;SDS011;56800;52.142;5.364;2023-03-16T02:40:20;5.95;;;4.57;;
69594;SDS011;56800;52.142;5.364;2023-03-16T02:43:03;7.28;;;4.70;;
69594;SDS011;56800;52.142;5.364;2023-03-16T02:45:45;9.97;;;4.90;;
69594;SDS011;56800;52.142;5.364;2023-03-16T02:48:17;9.38;;;4.13;;
69594;SDS011;56800;52.142;5.364;2023-03-16T02:50:51;8.13;;;4.70;;
69594;SDS011;56800;52.142;5.364;2023-03-16T02:53:19;14.88;;;4.65;;
69594;SDS011;56800;52.142;5.364;2023-03-16T02:55:46;7.60;;;4.28;;
69594;SDS011;56800;52.142;5.364;2023-03-16T02:58:13;9.27;;;5.30;;
69594;SDS011;56800;52.142;5.364;2023-03-16T03:00:40;6.22;;;4.18;;
69594;SDS011;56800;52.142;5.364;2023-03-16T03:03:07;7.35;;;4.65;;
69594;SDS011;56800;52.142;5.364;2023-03-16T03:05:35;9.32;;;4.78;;
69594;SDS011;56800;52.142;5.364;2023-03-16T03:08:02;8.48;;;4.15;;
69594;SDS011;56800;52.142;5.364;2023-03-16T03:10:30;8.87;;;4.90;;
69594;SDS011;56800;52.142;5.364;2023-03-16T03:12:57;8.73;;;4.82;;
69594;SDS011;56800;52.142;5.364;2023-03-16T03:15:24;8.23;;;4.80;;
69594;SDS011;56800;52.142;5.364;2023-03-16T03:17:50;12.02;;;4.72;;
69594;SDS011;56800;52.142;5.364;2023-03-16T03:20:17;10.85;;;4.80;;
69594;SDS011;56800;52.142;5.364;2023-03-16T03:22:46;8.47;;;4.67;;
69594;SDS011;56800;52.142;5.364;2023-03-16T03:25:14;7.60;;;5.18;;
69594;SDS011;56800;52.142;5.364;2023-03-16T03:27:42;10.60;;;5.05;;
69594;SDS011;56800;52.142;5.364;2023-03-16T03:30:10;9.13;;;4.85;;
69594;SDS011;56800;52.142;5.364;2023-03-16T03:32:39;10.93;;;4.70;;
69594;SDS011;56800;52.142;5.364;2023-03-16T03:35:07;10.13;;;5.30;;
69594;SDS011;56800;52.142;5.364;2023-03-16T03:37:34;10.85;;;4.85;;
69594;SDS011;56800;52.142;5.364;2023-03-16T03:40:00;7.93;;;4.80;;
69594;SDS011;56800;52.142;5.364;2023-03-16T03:42:37;9.70;;;4.95;;
69594;SDS011;56800;52.142;5.364;2023-03-16T03:45:04;8.30;;;4.95;;
69594;SDS011;56800;52.142;5.364;2023-03-16T03:47:32;10.30;;;5.30;;
69594;SDS011;56800;52.142;5.364;2023-03-16T03:49:59;8.73;;;4.85;;
69594;SDS011;56800;52.142;5.364;2023-03-16T03:52:26;8.27;;;5.35;;
69594;SDS011;56800;52.142;5.364;2023-03-16T03:54:53;9.68;;;4.80;;
69594;SDS011;56800;52.142;5.364;2023-03-16T03:57:20;9.10;;;4.70;;
69594;SDS011;56800;52.142;5.364;2023-03-16T03:59:47;7.47;;;5.00;;
69594;SDS011;56800;52.142;5.364;2023-03-16T04:02:14;8.27;;;5.00;;
69594;SDS011;56800;52.142;5.364;2023-03-16T04:04:41;11.73;;;4.95;;
69594;SDS011;56800;52.142;5.364;2023-03-16T04:07:09;8.07;;;5.22;;
69594;SDS011;56800;52.142;5.364;2023-03-16T04:09:35;9.35;;;5.82;;
69594;SDS011;56800;52.142;5.364;2023-03-16T04:12:03;10.23;;;4.90;;
69594;SDS011;56800;52.142;5.364;2023-03-16T04:14:31;10.60;;;5.40;;
69594;SDS011;56800;52.142;5.364;2023-03-16T04:16:58;11.23;;;5.65;;
69594;SDS011;56800;52.142;5.364;2023-03-16T04:19:25;10.93;;;5.78;;
69594;SDS011;56800;52.142;5.364;2023-03-16T04:21:51;10.85;;;5.05;;
69594;SDS011;56800;52.142;5.364;2023-03-16T04:24:18;10.83;;;5.03;;
69594;SDS011;56800;52.142;5.364;2023-03-16T04:26:45;10.18;;;4.97;;
69594;SDS011;56800;52.142;5.364;2023-03-16T04:29:12;9.50;;;4.93;;
69594;SDS011;56800;52.142;5.364;2023-03-16T04:31:43;9.18;;;5.38;;
69594;SDS011;56800;52.142;5.364;2023-03-16T04:34:11;9.65;;;5.22;;
69594;SDS011;56800;52.142;5.364;2023-03-16T04:36:38;11.23;;;5.40;;
69594;SDS011;56800;52.142;5.364;2023-03-16T04:39:04;7.18;;;4.90;;
69594;SDS011;56800;52.142;5.364;2023-03-16T04:41:31;8.95;;;5.63;;
69594;SDS011;56800;52.142;5.364;2023-03-16T04:43:58;8.68;;;5.65;;
69594;SDS011;56800;52.142;5.364;2023-03-16T04:46:25;11.88;;;5.15;;
69594;SDS011;56800;52.142;5.364;2023-03-16T04:48:52;8.17;;;5.30;;
69594;SDS011;56800;52.142;5.364;2023-03-16T04:51:19;9.35;;;4.82;;
69594;SDS011;56800;52.142;5.364;2023-03-16T04:53:46;10.27;;;5.47;;
69594;SDS011;56800;52.142;5.364;2023-03-16T04:56:13;9.80;;;4.53;;
69594;SDS011;56800;52.142;5.364;2023-03-16T04:58:45;8.85;;;4.95;;
69594;SDS011;56800;52.142;5.364;2023-03-16T05:01:13;10.43;;;5.30;;
69594;SDS011;56800;52.142;5.364;2023-03-16T05:03:41;7.15;;;5.00;;
69594;SDS011;56800;52.142;5.364;2023-03-16T05:06:09;10.93;;;5.43;;
69594;SDS011;56800;52.142;5.364;2023-03-16T05:08:37;8.27;;;4.80;;
69594;SDS011;56800;52.142;5.364;2023-03-16T05:11:03;14.65;;;5.10;;
69594;SDS011;56800;52.142;5.364;2023-03-16T05:13:30;6.67;;;4.60;;
69594;SDS011;56800;52.142;5.364;2023-03-16T05:15:57;8.73;;;4.93;;
69594;SDS011;56800;52.142;5.364;2023-03-16T05:18:23;7.75;;;4.90;;
69594;SDS011;56800;52.142;5.364;2023-03-16T05:20:51;9.15;;;4.65;;
69594;SDS011;56800;52.142;5.364;2023-03-16T05:23:19;6.65;;;4.65;;
69594;SDS011;56800;52.142;5.364;2023-03-16T05:25:46;8.30;;;5.00;;
69594;SDS011;56800;52.142;5.364;2023-03-16T05:28:13;10.63;;;5.10;;
69594;SDS011;56800;52.142;5.364;2023-03-16T05:30:40;8.95;;;4.32;;
69594;SDS011;56800;52.142;5.364;2023-03-16T05:33:07;9.77;;;4.93;;
69594;SDS011;56800;52.142;5.364;2023-03-16T05:35:34;7.85;;;4.47;;
69594;SDS011;56800;52.142;5.364;2023-03-16T05:38:01;8.40;;;5.07;;
69594;SDS011;56800;52.142;5.364;2023-03-16T05:40:29;9.18;;;4.28;;
69594;SDS011;56800;52.142;5.364;2023-03-16T05:42:56;8.25;;;4.57;;
69594;SDS011;56800;52.142;5.364;2023-03-16T05:45:23;6.32;;;4.30;;
69594;SDS011;56800;52.142;5.364;2023-03-16T05:47:50;8.98;;;4.88;;
69594;SDS011;56800;52.142;5.364;2023-03-16T05:50:18;10.43;;;5.00;;
69594;SDS011;56800;52.142;5.364;2023-03-16T05:52:45;9.88;;;5.00;;
69594;SDS011;56800;52.142;5.364;2023-03-16T05:55:12;10.05;;;4.75;;
69594;SDS011;56800;52.142;5.364;2023-03-16T05:57:41;8.98;;;4.63;;
69594;SDS011;56800;52.142;5.364;2023-03-16T06:00:09;9.20;;;4.90;;
69594;SDS011;56800;52.142;5.364;2023-03-16T06:02:41;10.00;;;4.20;;
69594;SDS011;56800;52.142;5.364;2023-03-16T06:05:09;8.10;;;4.15;;
69594;SDS011;56800;52.142;5.364;2023-03-16T06:07:36;10.48;;;4.60;;
69594;SDS011;56800;52.142;5.364;2023-03-16T06:10:03;9.65;;;4.55;;
69594;SDS011;56800;52.142;5.364;2023-03-16T06:12:30;6.93;;;4.43;;
69594;SDS011;56800;52.142;5.364;2023-03-16T06:14:57;11.57;;;5.40;;
69594;SDS011;56800;52.142;5.364;2023-03-16T06:17:24;10.55;;;4.38;;
69594;SDS011;56800;52.142;5.364;2023-03-16T06:19:50;6.45;;;4.40;;
69594;SDS011;56800;52.142;5.364;2023-03-16T06:22:17;8.90;;;4.40;;
69594;SDS011;56800;52.142;5.364;2023-03-16T06:24:44;7.47;;;4.45;;
69594;SDS011;56800;52.142;5.364;2023-03-16T06:27:11;7.37;;;3.73;;
69594;SDS011;56800;52.142;5.364;2023-03-16T06:29:38;8.05;;;3.95;;
69594;SDS011;56800;52.142;5.364;2023-03-16T06:32:04;8.95;;;4.40;;
69594;SDS011;56800;52.142;5.364;2023-03-16T06:34:31;7.95;;;4.60;;
69594;SDS011;56800;52.142;5.364;2023-03-16T06:37:00;7.40;;;4.03;;
69594;SDS011;56800;52.142;5.364;2023-03-16T06:39:26;8.43;;;4.43;;
69594;SDS011;56800;52.142;5.364;2023-03-16T06:41:53;7.95;;;4.20;;
69594;SDS011;56800;52.142;5.364;2023-03-16T06:44:20;7.75;;;4.55;;
69594;SDS011;56800;52.142;5.364;2023-03-16T06:46:46;6.57;;;3.75;;
69594;SDS011;56800;52.142;5.364;2023-03-16T06:49:13;7.50;;;3.83;;
69594;SDS011;56800;52.142;5.364;2023-03-16T06:51:39;6.67;;;4.13;;
69594;SDS011;56800;52.142;5.364;2023-03-16T06:54:07;11.52;;;4.25;;
69594;SDS011;56800;52.142;5.364;2023-03-16T06:56:33;7.15;;;3.95;;
69594;SDS011;56800;52.142;5.364;2023-03-16T06:59:00;7.32;;;3.65;;
69594;SDS011;56800;52.142;5.364;2023-03-16T07:01:26;7.88;;;3.78;;
69594;SDS011;56800;52.142;5.364;2023-03-16T07:03:53;10.87;;;4.00;;
69594;SDS011;56800;52.142;5.364;2023-03-16T07:06:20;6.07;;;3.30;;
69594;SDS011;56800;52.142;5.364;2023-03-16T07:08:47;10.68;;;3.85;;
69594;SDS011;56800;52.142;5.364;2023-03-16T07:11:13;6.32;;;4.00;;
69594;SDS011;56800;52.142;5.364;2023-03-16T07:13:40;9.65;;;3.83;;
69594;SDS011;56800;52.142;5.364;2023-03-16T07:16:07;6.80;;;3.37;;
69594;SDS011;56800;52.142;5.364;2023-03-16T07:18:33;8.48;;;3.22;;
69594;SDS011;56800;52.142;5.364;2023-03-16T07:21:02;9.10;;;3.78;;
69594;SDS011;56800;52.142;5.364;2023-03-16T07:23:29;8.63;;;3.60;;
69594;SDS011;56800;52.142;5.364;2023-03-16T07:25:57;11.77;;;3.42;;
69594;SDS011;56800;52.142;5.364;2023-03-16T07:28:24;8.83;;;4.40;;
69594;SDS011;56800;52.142;5.364;2023-03-16T07:30:50;7.40;;;3.70;;
69594;SDS011;56800;52.142;5.364;2023-03-16T07:33:28;8.57;;;4.47;;
69594;SDS011;56800;52.142;5.364;2023-03-16T07:35:55;9.23;;;4.00;;
69594;SDS011;56800;52.142;5.364;2023-03-16T07:38:22;6.53;;;3.70;;
69594;SDS011;56800;52.142;5.364;2023-03-16T07:40:49;7.77;;;4.00;;
69594;SDS011;56800;52.142;5.364;2023-03-16T07:43:17;6.90;;;3.45;;
69594;SDS011;56800;52.142;5.364;2023-03-16T07:45:47;6.50;;;3.80;;
69594;SDS011;56800;52.142;5.364;2023-03-16T07:48:15;7.30;;;3.95;;
69594;SDS011;56800;52.142;5.364;2023-03-16T07:50:42;6.85;;;4.28;;
69594;SDS011;56800;52.142;5.364;2023-03-16T07:53:09;7.83;;;4.27;;
69594;SDS011;56800;52.142;5.364;2023-03-16T07:55:36;10.45;;;4.20;;
69594;SDS011;56800;52.142;5.364;2023-03-16T07:58:04;9.65;;;4.20;;
69594;SDS011;56800;52.142;5.364;2023-03-16T08:00:31;9.30;;;4.20;;
69594;SDS011;56800;52.142;5.364;2023-03-16T08:02:59;8.95;;;4.20;;
69594;SDS011;56800;52.142;5.364;2023-03-16T08:05:27;7.83;;;3.70;;
69594;SDS011;56800;52.142;5.364;2023-03-16T08:07:54;8.40;;;4.10;;
69594;SDS011;56800;52.142;5.364;2023-03-16T08:10:22;8.63;;;4.38;;
69594;SDS011;56800;52.142;5.364;2023-03-16T08:12:49;8.73;;;3.70;;
69594;SDS011;56800;52.142;5.364;2023-03-16T08:15:16;7.78;;;3.78;;
69594;SDS011;56800;52.142;5.364;2023-03-16T08:17:44;7.53;;;3.73;;
69594;SDS011;56800;52.142;5.364;2023-03-16T08:20:12;7.30;;;4.20;;
69594;SDS011;56800;52.142;5.364;2023-03-16T08:22:41;8.38;;;4.85;;
69594;SDS011;56800;52.142;5.364;2023-03-16T08:25:11;9.95;;;5.47;;
69594;SDS011;56800;52.142;5.364;2023-03-16T08:27:39;12.25;;;5.63;;
69594;SDS011;56800;52.142;5.364;2023-03-16T08:30:09;9.13;;;5.03;;
69594;SDS011;56800;52.142;5.364;2023-03-16T08:32:37;9.68;;;4.28;;
69594;SDS011;56800;52.142;5.364;2023-03-16T08:35:09;7.35;;;4.53;;
69594;SDS011;56800;52.142;5.364;2023-03-16T08:37:42;9.98;;;3.92;;
69594;SDS011;56800;52.142;5.364;2023-03-16T08:40:09;8.27;;;4.45;;
69594;SDS011;56800;52.142;5.364;2023-03-16T08:42:39;7.17;;;3.83;;
69594;SDS011;56800;52.142;5.364;2023-03-16T08:45:06;8.55;;;4.13;;
69594;SDS011;56800;52.142;5.364;2023-03-16T08:47:39;9.13;;;4.30;;
69594;SDS011;56800;52.142;5.364;2023-03-16T08:50:06;9.63;;;3.97;;
69594;SDS011;56800;52.142;5.364;2023-03-16T08:52:34;7.47;;;3.92;;
69594;SDS011;56800;52.142;5.364;2023-03-16T08:55:04;12.93;;;3.93;;
69594;SDS011;56800;52.142;5.364;2023-03-16T08:57:32;9.10;;;3.92;;
69594;SDS011;56800;52.142;5.364;2023-03-16T08:59:59;9.55;;;4.20;;
69594;SDS011;56800;52.142;5.364;2023-03-16T09:02:26;6.68;;;3.42;;
69594;SDS011;56800;52.142;5.364;2023-03-16T09:04:53;6.70;;;3.47;;
69594;SDS011;56800;52.142;5.364;2023-03-16T09:07:21;9.90;;;3.43;;
69594;SDS011;56800;52.142;5.364;2023-03-16T09:09:47;8.23;;;3.35;;
69594;SDS011;56800;52.142;5.364;2023-03-16T09:12:14;8.07;;;3.60;;
69594;SDS011;56800;52.142;5.364;2023-03-16T09:14:41;7.18;;;3.70;;
69594;SDS011;56800;52.142;5.364;2023-03-16T09:17:07;6.80;;;3.20;;
69594;SDS011;56800;52.142;5.364;2023-03-16T09:19:36;9.13;;;3.60;;
69594;SDS011;56800;52.142;5.364;2023-03-16T09:22:24;8.25;;;3.67;;
69594;SDS011;56800;52.142;5.364;2023-03-16T09:24:50;8.38;;;3.92;;
69594;SDS011;56800;52.142;5.364;2023-03-16T09:27:17;7.25;;;3.67;;
69594;SDS011;56800;52.142;5.364;2023-03-16T09:29:45;6.30;;;3.67;;
69594;SDS011;56800;52.142;5.364;2023-03-16T09:32:12;9.83;;;3.83;;
69594;SDS011;56800;52.142;5.364;2023-03-16T09:34:39;6.65;;;4.10;;
69594;SDS011;56800;52.142;5.364;2023-03-16T09:37:06;7.90;;;4.13;;
69594;SDS011;56800;52.142;5.364;2023-03-16T09:39:33;6.82;;;4.20;;
69594;SDS011;56800;52.142;5.364;2023-03-16T09:42:05;9.10;;;4.40;;
69594;SDS011;56800;52.142;5.364;2023-03-16T09:47:34;7.75;;;4.50;;
69594;SDS011;56800;52.142;5.364;2023-03-16T09:50:04;8.50;;;4.20;;
69594;SDS011;56800;52.142;5.364;2023-03-16T09:52:36;9.50;;;4.20;;
69594;SDS011;56800;52.142;5.364;2023-03-16T09:55:26;8.00;;;3.50;;
69594;SDS011;56800;52.142;5.364;2023-03-16T09:57:57;6.97;;;3.63;;
69594;SDS011;56800;52.142;5.364;2023-03-16T10:05:56;9.38;;;3.75;;
69594;SDS011;56800;52.142;5.364;2023-03-16T10:08:36;7.47;;;3.58;;
69594;SDS011;56800;52.142;5.364;2023-03-16T10:16:49;10.55;;;3.15;;
69594;SDS011;56800;52.142;5.364;2023-03-16T10:19:42;7.75;;;3.00;;
69594;SDS011;56800;52.142;5.364;2023-03-16T10:22:24;8.25;;;3.20;;
69594;SDS011;56800;52.142;5.364;2023-03-16T10:28:00;6.47;;;3.10;;
69594;SDS011;56800;52.142;5.364;2023-03-16T10:30:28;7.10;;;3.15;;
69594;SDS011;56800;52.142;5.364;2023-03-16T10:33:01;6.22;;;3.58;;
69594;SDS011;56800;52.142;5.364;2023-03-16T10:35:46;6.90;;;3.10;;
69594;SDS011;56800;52.142;5.364;2023-03-16T10:41:17;6.18;;;2.80;;
69594;SDS011;56800;52.142;5.364;2023-03-16T10:43:51;6.05;;;2.92;;
69594;SDS011;56800;52.142;5.364;2023-03-16T10:46:23;9.07;;;2.92;;
69594;SDS011;56800;52.142;5.364;2023-03-16T10:48:56;8.20;;;3.05;;
69594;SDS011;56800;52.142;5.364;2023-03-16T10:51:31;4.70;;;2.90;;
69594;SDS011;56800;52.142;5.364;2023-03-16T10:54:06;9.57;;;3.03;;
69594;SDS011;56800;52.142;5.364;2023-03-16T10:56:39;6.25;;;2.80;;
69594;SDS011;56800;52.142;5.364;2023-03-16T10:59:39;6.75;;;2.38;;
69594;SDS011;56800;52.142;5.364;2023-03-16T11:02:00;4.95;;;2.47;;
69594;SDS011;56800;52.142;5.364;2023-03-16T11:04:31;6.03;;;3.10;;
69594;SDS011;56800;52.142;5.364;2023-03-16T11:06:58;8.50;;;2.53;;
69594;SDS011;56800;52.142;5.364;2023-03-16T11:09:34;6.47;;;2.50;;
69594;SDS011;56800;52.142;5.364;2023-03-16T11:12:18;5.97;;;2.63;;
69594;SDS011;56800;52.142;5.364;2023-03-16T11:14:51;7.82;;;2.95;;
69594;SDS011;56800;52.142;5.364;2023-03-16T11:17:33;6.17;;;3.17;;
69594;SDS011;56800;52.142;5.364;2023-03-16T11:20:31;7.78;;;3.15;;
69594;SDS011;56800;52.142;5.364;2023-03-16T11:22:59;5.28;;;2.60;;
69594;SDS011;56800;52.142;5.364;2023-03-16T11:25:38;6.95;;;2.80;;
69594;SDS011;56800;52.142;5.364;2023-03-16T11:28:13;6.70;;;2.60;;
69594;SDS011;56800;52.142;5.364;2023-03-16T11:33:19;7.10;;;2.90;;
69594;SDS011;56800;52.142;5.364;2023-03-16T11:38:27;7.57;;;3.25;;
69594;SDS011;56800;52.142;5.364;2023-03-16T11:43:46;5.93;;;2.60;;
69594;SDS011;56800;52.142;5.364;2023-03-16T11:46:22;6.60;;;3.00;;
69594;SDS011;56800;52.142;5.364;2023-03-16T11:49:21;11.15;;;2.85;;
69594;SDS011;56800;52.142;5.364;2023-03-16T11:54:54;6.63;;;2.72;;
69594;SDS011;56800;52.142;5.364;2023-03-16T12:00:32;4.38;;;2.78;;
69594;SDS011;56800;52.142;5.364;2023-03-16T12:14:24;7.35;;;3.22;;
69594;SDS011;56800;52.142;5.364;2023-03-16T12:17:15;4.53;;;2.10;;
69594;SDS011;56800;52.142;5.364;2023-03-16T12:20:02;4.07;;;2.20;;
69594;SDS011;56800;52.142;5.364;2023-03-16T12:22:52;5.30;;;2.45;;
69594;SDS011;56800;52.142;5.364;2023-03-16T12:25:25;8.07;;;2.50;;
69594;SDS011;56800;52.142;5.364;2023-03-16T12:27:57;5.15;;;2.50;;
69594;SDS011;56800;52.142;5.364;2023-03-16T12:30:34;7.90;;;2.53;;
69594;SDS011;56800;52.142;5.364;2023-03-16T12:44:55;7.28;;;2.20;;
69594;SDS011;56800;52.142;5.364;2023-03-16T12:47:32;4.53;;;2.15;;
69594;SDS011;56800;52.142;5.364;2023-03-16T12:50:10;6.43;;;2.50;;
69594;SDS011;56800;52.142;5.364;2023-03-16T12:52:41;7.80;;;2.27;;
69594;SDS011;56800;52.142;5.364;2023-03-16T12:57:49;6.13;;;2.08;;
69594;SDS011;56800;52.142;5.364;2023-03-16T13:00:31;6.00;;;2.38;;
69594;SDS011;56800;52.142;5.364;2023-03-16T13:03:10;5.80;;;2.33;;
69594;SDS011;56800;52.142;5.364;2023-03-16T13:05:50;6.20;;;2.33;;
69594;SDS011;56800;52.142;5.364;2023-03-16T13:08:20;4.30;;;2.33;;
69594;SDS011;56800;52.142;5.364;2023-03-16T13:14:29;7.35;;;2.30;;
69594;SDS011;56800;52.142;5.364;2023-03-16T13:16:38;3.67;;;1.73;;
69594;SDS011;56800;52.142;5.364;2023-03-16T13:22:02;3.60;;;1.52;;
69594;SDS011;56800;52.142;5.364;2023-03-16T13:24:54;5.10;;;2.13;;
69594;SDS011;56800;52.142;5.364;2023-03-16T13:27:36;4.75;;;2.17;;
69594;SDS011;56800;52.142;5.364;2023-03-16T13:32:59;3.57;;;1.90;;
69594;SDS011;56800;52.142;5.364;2023-03-16T13:35:35;3.03;;;1.70;;
69594;SDS011;56800;52.142;5.364;2023-03-16T13:38:12;6.97;;;2.30;;
69594;SDS011;56800;52.142;5.364;2023-03-16T13:40:48;3.88;;;1.80;;
69594;SDS011;56800;52.142;5.364;2023-03-16T13:43:28;5.88;;;1.90;;
69594;SDS011;56800;52.142;5.364;2023-03-16T13:45:57;6.87;;;2.00;;
69594;SDS011;56800;52.142;5.364;2023-03-16T13:48:24;5.43;;;1.75;;
69594;SDS011;56800;52.142;5.364;2023-03-16T13:50:51;5.30;;;1.83;;
69594;SDS011;56800;52.142;5.364;2023-03-16T13:53:24;3.33;;;1.80;;
69594;SDS011;56800;52.142;5.364;2023-03-16T13:55:55;3.90;;;2.08;;
69594;SDS011;56800;52.142;5.364;2023-03-16T13:58:25;5.67;;;1.63;;
69594;SDS011;56800;52.142;5.364;2023-03-16T14:01:01;5.47;;;1.77;;
69594;SDS011;56800;52.142;5.364;2023-03-16T14:03:31;6.47;;;2.00;;
69594;SDS011;56800;52.142;5.364;2023-03-16T14:05:59;3.75;;;1.88;;
69594;SDS011;56800;52.142;5.364;2023-03-16T14:08:26;5.68;;;1.55;;
69594;SDS011;56800;52.142;5.364;2023-03-16T14:10:55;5.97;;;1.80;;
69594;SDS011;56800;52.142;5.364;2023-03-16T14:16:00;5.15;;;1.58;;
69594;SDS011;56800;52.142;5.364;2023-03-16T14:18:39;3.92;;;1.90;;
69594;SDS011;56800;52.142;5.364;2023-03-16T14:21:27;4.35;;;1.70;;
69594;SDS011;56800;52.142;5.364;2023-03-16T14:24:00;5.87;;;1.83;;
69594;SDS011;56800;52.142;5.364;2023-03-16T14:26:37;4.40;;;1.73;;
69594;SDS011;56800;52.142;5.364;2023-03-16T14:29:09;8.15;;;1.90;;
69594;SDS011;56800;52.142;5.364;2023-03-16T14:31:49;4.53;;;1.70;;
69594;SDS011;56800;52.142;5.364;2023-03-16T14:36:51;3.80;;;1.37;;
69594;SDS011;56800;52.142;5.364;2023-03-16T14:39:19;5.18;;;1.65;;
69594;SDS011;56800;52.142;5.364;2023-03-16T14:41:47;7.22;;;1.50;;
69594;SDS011;56800;52.142;5.364;2023-03-16T14:44:19;3.75;;;1.25;;
69594;SDS011;56800;52.142;5.364;2023-03-16T14:46:49;3.75;;;1.23;;
69594;SDS011;56800;52.142;5.364;2023-03-16T14:49:20;5.77;;;1.50;;
69594;SDS011;56800;52.142;5.364;2023-03-16T14:51:51;5.45;;;1.88;;
69594;SDS011;56800;52.142;5.364;2023-03-16T14:54:20;6.72;;;1.88;;
69594;SDS011;56800;52.142;5.364;2023-03-16T14:56:51;5.72;;;2.00;;
69594;SDS011;56800;52.142;5.364;2023-03-16T14:59:20;7.15;;;2.10;;
69594;SDS011;56800;52.142;5.364;2023-03-16T15:01:47;4.43;;;1.80;;
69594;SDS011;56800;52.142;5.364;2023-03-16T15:04:16;3.97;;;1.45;;
69594;SDS011;56800;52.142;5.364;2023-03-16T15:06:47;5.50;;;1.98;;
69594;SDS011;56800;52.142;5.364;2023-03-16T15:09:20;3.67;;;1.60;;
69594;SDS011;56800;52.142;5.364;2023-03-16T15:11:56;7.90;;;1.70;;
69594;SDS011;56800;52.142;5.364;2023-03-16T15:14:23;4.17;;;1.50;;
69594;SDS011;56800;52.142;5.364;2023-03-16T15:17:08;6.22;;;1.45;;
69594;SDS011;56800;52.142;5.364;2023-03-16T15:19:36;5.60;;;1.83;;
69594;SDS011;56800;52.142;5.364;2023-03-16T15:22:02;3.92;;;1.55;;
69594;SDS011;56800;52.142;5.364;2023-03-16T15:24:31;4.03;;;1.90;;
69594;SDS011;56800;52.142;5.364;2023-03-16T15:26:58;7.27;;;1.90;;
69594;SDS011;56800;52.142;5.364;2023-03-16T15:29:25;5.22;;;1.63;;
69594;SDS011;56800;52.142;5.364;2023-03-16T15:31:52;5.50;;;1.70;;
69594;SDS011;56800;52.142;5.364;2023-03-16T15:34:20;4.28;;;1.77;;
69594;SDS011;56800;52.142;5.364;2023-03-16T15:36:47;5.07;;;1.98;;
69594;SDS011;56800;52.142;5.364;2023-03-16T15:39:20;5.43;;;1.73;;
69594;SDS011;56800;52.142;5.364;2023-03-16T15:41:49;5.82;;;1.85;;
69594;SDS011;56800;52.142;5.364;2023-03-16T15:44:16;7.07;;;1.90;;
69594;SDS011;56800;52.142;5.364;2023-03-16T15:46:43;4.43;;;1.45;;
69594;SDS011;56800;52.142;5.364;2023-03-16T15:49:10;6.30;;;1.77;;
69594;SDS011;56800;52.142;5.364;2023-03-16T15:51:37;5.10;;;1.70;;
69594;SDS011;56800;52.142;5.364;2023-03-16T15:54:05;4.18;;;1.70;;
69594;SDS011;56800;52.142;5.364;2023-03-16T15:56:34;4.88;;;1.40;;
69594;SDS011;56800;52.142;5.364;2023-03-16T15:59:19;5.47;;;1.50;;
69594;SDS011;56800;52.142;5.364;2023-03-16T16:01:47;5.38;;;1.60;;
69594;SDS011;56800;52.142;5.364;2023-03-16T16:04:18;5.10;;;1.90;;
69594;SDS011;56800;52.142;5.364;2023-03-16T16:06:48;3.22;;;1.70;;
69594;SDS011;56800;52.142;5.364;2023-03-16T16:09:16;4.63;;;1.60;;
69594;SDS011;56800;52.142;5.364;2023-03-16T16:11:43;4.88;;;1.38;;
69594;SDS011;56800;52.142;5.364;2023-03-16T16:14:13;5.93;;;1.70;;
69594;SDS011;56800;52.142;5.364;2023-03-16T16:16:43;2.83;;;1.63;;
69594;SDS011;56800;52.142;5.364;2023-03-16T16:19:14;7.50;;;1.92;;
69594;SDS011;56800;52.142;5.364;2023-03-16T16:21:41;6.38;;;1.80;;
69594;SDS011;56800;52.142;5.364;2023-03-16T16:24:09;5.13;;;1.77;;
69594;SDS011;56800;52.142;5.364;2023-03-16T16:26:36;6.45;;;1.75;;
69594;SDS011;56800;52.142;5.364;2023-03-16T16:29:23;4.70;;;1.90;;
69594;SDS011;56800;52.142;5.364;2023-03-16T16:31:55;5.80;;;1.50;;